createdAt,value
2022-08-18T00:04:36.438Z,9.60
2022-08-18T00:09:37.112Z,9.07
2022-08-18T00:14:36.525Z,9.27
2022-08-18T00:19:45.327Z,8.60
2022-08-18T00:24:47.889Z,9.33
2022-08-18T00:29:48.348Z,9.00
2022-08-18T00:34:46.404Z,9.33
2022-08-18T00:39:47.796Z,8.93
2022-08-18T00:44:46.024Z,9.03
2022-08-18T00:49:47.539Z,9.00
2022-08-18T00:54:48.087Z,8.77
2022-08-18T00:59:51.922Z,8.40
2022-08-18T01:04:57.010Z,8.87
2022-08-18T01:09:54.999Z,9.63
2022-08-18T01:14:54.224Z,9.37
2022-08-18T01:20:10.581Z,9.53
2022-08-18T01:25:28.268Z,8.37
2022-08-18T01:30:26.595Z,9.57
2022-08-18T01:35:27.024Z,9.37
2022-08-18T01:41:21.867Z,9.87
2022-08-18T01:45:45.114Z,9.63
2022-08-18T01:50:44.253Z,10.10
2022-08-18T01:55:45.680Z,10.10
2022-08-18T02:00:43.647Z,9.27
2022-08-18T02:05:44.997Z,9.73
2022-08-18T02:10:46.935Z,10.07
2022-08-18T02:15:44.904Z,10.00
2022-08-18T02:20:44.785Z,10.53
2022-08-18T02:25:43.859Z,10.90
2022-08-18T02:30:43.977Z,10.20
2022-08-18T02:35:43.922Z,9.97
2022-08-18T02:40:42.452Z,9.77
2022-08-18T02:45:40.779Z,9.60
2022-08-18T02:50:46.023Z,10.00
2022-08-18T02:55:44.028Z,11.20
2022-08-18T03:00:42.888Z,9.53
2022-08-18T03:05:42.214Z,11.40
2022-08-18T03:10:40.263Z,10.70
2022-08-18T03:15:38.266Z,10.50
2022-08-18T03:20:37.102Z,11.10
2022-08-18T03:25:36.942Z,9.97
2022-08-18T03:30:34.954Z,12.03
2022-08-18T03:35:34.573Z,11.57
2022-08-18T03:40:32.586Z,11.40
2022-08-18T03:45:31.989Z,11.03
2022-08-18T03:50:32.218Z,12.30
2022-08-18T03:55:30.619Z,11.20
2022-08-18T04:00:28.812Z,11.50
2022-08-18T04:05:28.778Z,10.40
2022-08-18T04:10:26.783Z,11.43
2022-08-18T04:15:24.874Z,12.30
2022-08-18T04:20:24.350Z,11.23
2022-08-18T04:25:23.770Z,11.80
2022-08-18T04:30:22.435Z,11.90
2022-08-18T04:35:22.266Z,11.93
2022-08-18T04:40:24.977Z,11.67
2022-08-18T04:45:24.695Z,12.20
2022-08-18T04:50:24.451Z,11.80
2022-08-18T04:55:29.169Z,11.73
2022-08-18T05:00:28.515Z,12.07
2022-08-18T05:05:27.530Z,11.50
2022-08-18T05:10:25.535Z,11.97
2022-08-18T05:15:23.529Z,13.00
2022-08-18T05:20:23.176Z,11.70
2022-08-18T05:25:21.304Z,11.93
2022-08-18T05:30:19.377Z,11.17
2022-08-18T05:35:26.333Z,12.07
2022-08-18T05:40:25.505Z,13.17
2022-08-18T05:45:24.286Z,14.00
2022-08-18T05:50:23.998Z,13.50
2022-08-18T05:55:48.050Z,12.10
2022-08-18T06:00:58.816Z,13.13
2022-08-18T06:06:02.258Z,13.40
2022-08-18T06:11:00.295Z,14.03
2022-08-18T06:16:06.951Z,13.10
2022-08-18T06:21:17.478Z,13.67
2022-08-18T06:26:22.119Z,13.40
2022-08-18T06:31:29.449Z,14.13
2022-08-18T06:36:38.703Z,13.80
2022-08-18T06:41:42.147Z,13.60
2022-08-18T06:46:48.046Z,12.67
2022-08-18T06:51:47.320Z,13.07
2022-08-18T06:56:50.045Z,12.47
2022-08-18T07:01:51.600Z,13.70
2022-08-18T07:06:50.953Z,11.93
2022-08-18T07:12:06.000Z,12.10
2022-08-18T07:17:12.013Z,13.13
2022-08-18T07:22:13.466Z,13.80
2022-08-18T07:27:15.354Z,12.83
2022-08-18T07:32:21.338Z,13.07
2022-08-18T07:37:28.912Z,13.17
2022-08-18T07:42:56.869Z,12.37
2022-08-18T07:48:07.165Z,13.07
2022-08-18T07:53:26.034Z,12.70
2022-08-18T07:58:33.775Z,12.97
2022-08-18T08:03:41.771Z,12.83
2022-08-18T08:08:45.167Z,12.77
2022-08-18T08:13:59.789Z,12.20
2022-08-18T08:19:12.566Z,13.00
2022-08-18T08:24:20.971Z,12.63
2022-08-18T08:29:31.327Z,12.40
2022-08-18T08:34:36.323Z,12.73
2022-08-18T08:39:40.771Z,12.90
2022-08-18T08:44:58.434Z,13.10
2022-08-18T08:50:02.121Z,12.70
2022-08-18T08:55:06.577Z,12.47
2022-08-18T09:00:10.971Z,13.33
2022-08-18T09:05:13.727Z,13.40
2022-08-18T09:10:48.385Z,12.00
2022-08-18T09:16:13.835Z,12.83
2022-08-18T09:21:26.024Z,13.70
2022-08-18T09:26:40.403Z,12.90
2022-08-18T09:31:38.608Z,13.00
2022-08-18T09:36:55.126Z,13.53
2022-08-18T09:41:59.555Z,12.80
2022-08-18T09:47:00.647Z,12.17
2022-08-18T09:52:02.245Z,12.50
2022-08-18T09:57:21.763Z,11.57
2022-08-18T10:02:59.722Z,11.40
2022-08-18T10:08:36.980Z,13.63
2022-08-18T10:13:51.113Z,11.73
2022-08-18T10:19:06.564Z,12.47
2022-08-18T10:24:35.091Z,12.40
2022-08-18T10:29:57.300Z,11.73
2022-08-18T10:34:55.467Z,10.50
2022-08-18T10:39:58.081Z,11.47
2022-08-18T10:45:08.849Z,10.83
2022-08-18T10:50:19.647Z,8.97
2022-08-18T10:55:48.599Z,10.77
2022-08-18T11:01:10.042Z,9.13
2022-08-18T11:06:14.686Z,10.17
2022-08-18T11:11:37.458Z,10.80
2022-08-18T11:16:52.002Z,8.83
2022-08-18T11:21:53.693Z,9.30
2022-08-18T11:26:54.755Z,8.80
2022-08-18T11:31:59.449Z,7.57
2022-08-18T11:37:01.834Z,7.30
2022-08-18T11:42:00.418Z,8.20
2022-08-18T11:47:14.872Z,7.67
2022-08-18T11:52:29.273Z,8.10
2022-08-18T11:57:46.892Z,8.30
2022-08-18T12:02:48.736Z,8.83
2022-08-18T12:07:51.091Z,7.10
2022-08-18T12:12:57.630Z,6.70
2022-08-18T12:17:58.513Z,8.83
2022-08-18T12:22:58.507Z,8.40
2022-08-18T12:27:56.460Z,7.93
2022-08-18T12:32:56.310Z,8.03
2022-08-18T12:38:13.289Z,8.17
2022-08-18T12:43:13.127Z,7.83
2022-08-18T12:48:11.939Z,9.07
2022-08-18T12:53:11.933Z,9.80
2022-08-18T12:58:10.100Z,9.50
2022-08-18T13:03:08.923Z,8.57
2022-08-18T13:08:12.423Z,9.37
2022-08-18T13:13:12.080Z,9.10
2022-08-18T13:18:14.298Z,8.70
2022-08-18T13:23:12.639Z,7.97
2022-08-18T13:28:12.060Z,8.97
2022-08-18T13:33:34.908Z,8.27
2022-08-18T13:38:29.759Z,7.70
2022-08-18T13:43:34.403Z,8.80
2022-08-18T13:48:32.662Z,8.30
2022-08-18T13:53:32.117Z,7.80
2022-08-18T13:58:31.474Z,6.80
2022-08-18T14:03:46.973Z,7.30
2022-08-18T14:08:45.792Z,7.60
2022-08-18T14:13:45.434Z,7.50
2022-08-18T14:18:43.352Z,7.07
2022-08-18T14:24:00.561Z,7.77
2022-08-18T14:29:00.691Z,7.33
2022-08-18T14:34:04.426Z,7.20
2022-08-18T14:39:03.211Z,7.80
2022-08-18T14:44:13.261Z,7.20
2022-08-18T14:49:12.236Z,7.40
2022-08-18T14:54:11.273Z,7.40
2022-08-18T14:59:17.413Z,7.70
2022-08-18T15:04:19.148Z,8.50
2022-08-18T15:09:17.920Z,8.27
2022-08-18T15:14:17.636Z,8.20
2022-08-18T15:19:57.517Z,8.63
2022-08-18T15:24:52.888Z,8.90
2022-08-18T15:29:52.497Z,8.30
2022-08-18T15:34:51.897Z,7.60
2022-08-18T15:39:51.804Z,7.90
2022-08-18T15:44:55.389Z,7.77
2022-08-18T15:49:55.149Z,7.80
2022-08-18T15:54:55.680Z,7.27
2022-08-18T15:59:58.183Z,7.20
2022-08-18T16:04:56.539Z,7.20
2022-08-18T16:09:54.854Z,7.27
2022-08-18T16:14:53.150Z,8.03
2022-08-18T16:19:52.544Z,7.37
2022-08-18T16:24:55.064Z,7.37
2022-08-18T16:29:53.700Z,6.77
2022-08-18T16:34:53.494Z,7.33
2022-08-18T16:39:51.676Z,8.07
2022-08-18T16:44:49.723Z,7.60
2022-08-18T16:49:48.703Z,7.33
2022-08-18T16:54:48.809Z,8.60
2022-08-18T17:00:13.059Z,9.40
2022-08-18T17:05:12.286Z,8.27
2022-08-18T17:10:12.539Z,9.00
2022-08-18T17:15:10.785Z,7.77
2022-08-18T17:20:11.123Z,8.07
2022-08-18T17:25:13.139Z,9.03
2022-08-18T17:30:15.989Z,9.37
2022-08-18T17:35:17.707Z,9.30
2022-08-18T17:40:22.417Z,8.20
2022-08-18T17:45:22.249Z,8.00
2022-08-18T17:50:45.471Z,7.70
2022-08-18T17:55:50.658Z,9.03
2022-08-18T18:00:48.590Z,8.60
2022-08-18T18:05:52.746Z,8.23
2022-08-18T18:11:07.641Z,8.63
2022-08-18T18:16:25.714Z,8.77
2022-08-18T18:21:53.452Z,8.97
2022-08-18T18:26:47.973Z,8.60
2022-08-18T18:31:48.691Z,8.97
2022-08-18T18:36:48.707Z,8.50
2022-08-18T18:41:49.115Z,9.63
2022-08-18T18:46:51.074Z,9.27
2022-08-18T18:52:02.197Z,9.27
2022-08-18T18:57:03.508Z,9.80
2022-08-18T19:02:33.191Z,9.60
2022-08-18T19:07:27.508Z,9.10
2022-08-18T19:12:30.614Z,9.40
2022-08-18T19:17:37.184Z,9.40
2022-08-18T19:22:42.781Z,8.70
2022-08-18T19:27:54.518Z,8.90
2022-08-18T19:32:55.121Z,9.07
2022-08-18T19:38:07.783Z,9.97
2022-08-18T19:43:12.543Z,8.77
2022-08-18T19:48:18.387Z,8.37
2022-08-18T19:53:32.937Z,8.40
2022-08-18T19:59:15.552Z,8.57
2022-08-18T20:04:33.515Z,8.80
2022-08-18T20:09:50.881Z,8.93
2022-08-18T20:15:02.591Z,8.30
2022-08-18T20:20:18.159Z,8.37
2022-08-18T20:25:40.513Z,8.20
2022-08-18T20:30:58.382Z,8.27
2022-08-18T20:36:11.389Z,9.00
2022-08-18T20:41:43.960Z,11.87
2022-08-18T20:46:55.944Z,11.53
2022-08-18T20:52:00.466Z,11.50
2022-08-18T20:57:05.965Z,10.40
2022-08-18T21:02:08.437Z,12.87
2022-08-18T21:07:12.976Z,11.37
2022-08-18T21:12:14.615Z,12.00
2022-08-18T21:17:15.422Z,10.57
2022-08-18T21:22:13.883Z,12.10
2022-08-18T21:27:20.525Z,13.03
2022-08-18T21:32:24.302Z,11.90
2022-08-18T21:37:22.562Z,12.63
2022-08-18T21:42:24.499Z,12.43
2022-08-18T21:47:27.125Z,12.80
2022-08-18T21:52:26.774Z,12.70
2022-08-18T21:57:27.492Z,13.27
2022-08-18T22:02:26.848Z,12.80
2022-08-18T22:07:34.257Z,13.77
2022-08-18T22:12:51.723Z,11.60
2022-08-18T22:17:58.232Z,12.47
2022-08-18T22:23:19.258Z,14.00
2022-08-18T22:28:22.510Z,12.63
2022-08-18T22:33:22.934Z,13.33
2022-08-18T22:38:21.032Z,13.40
2022-08-18T22:43:19.278Z,12.90
2022-08-18T22:48:17.292Z,12.73
2022-08-18T22:53:18.453Z,14.50
2022-08-18T22:58:22.094Z,14.27
2022-08-18T23:03:26.294Z,13.10
2022-08-18T23:08:35.740Z,12.03
2022-08-18T23:13:48.087Z,12.40
2022-08-18T23:18:46.036Z,11.10
2022-08-18T23:23:45.376Z,12.30
2022-08-18T23:28:46.160Z,11.73
2022-08-18T23:33:44.200Z,11.00
2022-08-18T23:38:42.471Z,9.43
2022-08-18T23:43:42.435Z,10.93
2022-08-18T23:48:41.884Z,9.83
2022-08-18T23:53:39.937Z,10.40
2022-08-18T23:58:37.899Z,10.60
